Time;durP1;ratioP1;P1;durP2;ratioP2;P2;SDS_P1;SDS_P2;PMS_P1;PMS_P2;Temp;Humidity;BMP_temperature;BMP_pressure;BME280_temperature;BME280_humidity;BME280_pressure;Samples;Min_cycle;Max_cycle;Signal;HPM_P1;HPM_P2
2022/07/04 00:01:35;;;;;;;1.00;0.90;;;24.90;99.90;;;;;;5024710;28;20480;-79
2022/07/04 00:04:03;;;;;;;1.23;1.10;;;24.80;99.90;;;;;;5021736;28;20457;-80
2022/07/04 00:06:32;;;;;;;0.90;0.90;;;24.80;99.90;;;;;;5020117;28;20438;-80
2022/07/04 00:09:00;;;;;;;1.10;1.10;;;24.90;99.90;;;;;;5023425;28;20452;-79
2022/07/04 00:11:28;;;;;;;1.83;1.10;;;24.90;99.90;;;;;;5022984;28;20484;-80
2022/07/04 00:13:56;;;;;;;4.00;1.10;;;24.90;99.90;;;;;;5026263;28;20939;-80
2022/07/04 00:16:26;;;;;;;1.30;1.20;;;24.30;99.90;;;;;;5026195;28;20477;-80
2022/07/04 00:18:54;;;;;;;1.10;1.00;;;24.90;99.90;;;;;;5022468;28;20467;-80
2022/07/04 00:21:22;;;;;;;2.03;1.13;;;24.90;99.90;;;;;;5024959;28;20560;-79
2022/07/04 00:23:51;;;;;;;1.03;0.93;;;24.90;99.90;;;;;;5025089;28;20448;-80
2022/07/04 00:26:19;;;;;;;1.30;1.20;;;24.90;99.90;;;;;;5017663;28;20448;-79
2022/07/04 00:28:47;;;;;;;1.77;1.00;;;24.60;99.90;;;;;;5024769;28;20451;-79
2022/07/04 00:31:15;;;;;;;2.50;1.40;;;24.90;99.90;;;;;;5025158;28;20531;-79
2022/07/04 00:33:45;;;;;;;1.00;1.00;;;24.90;99.90;;;;;;5023385;28;20475;-80
2022/07/04 00:36:13;;;;;;;2.10;1.13;;;24.90;99.90;;;;;;5020342;28;20469;-80
2022/07/04 00:38:42;;;;;;;1.37;1.27;;;24.90;99.90;;;;;;5023583;28;20441;-81
2022/07/04 00:41:10;;;;;;;1.20;1.10;;;24.80;99.90;;;;;;5026109;28;20550;-80
2022/07/04 00:43:38;;;;;;;1.27;1.10;;;24.90;99.90;;;;;;5026764;28;20476;-80
2022/07/04 00:46:26;;;;;;;0.90;0.90;;;24.80;99.90;;;;;;5023771;28;20469;-80
2022/07/04 00:48:56;;;;;;;2.33;1.03;;;24.80;99.90;;;;;;5026103;28;20536;-80
2022/07/04 00:51:25;;;;;;;1.37;1.27;;;24.80;99.90;;;;;;5022170;28;21083;-81
2022/07/04 00:53:55;;;;;;;1.47;1.00;;;24.80;99.90;;;;;;5022654;28;20467;-79
2022/07/04 00:56:24;;;;;;;2.60;1.17;;;24.80;99.90;;;;;;5025041;28;20825;-80
2022/07/04 00:58:53;;;;;;;1.33;1.03;;;24.80;99.90;;;;;;5026213;28;20452;-80
2022/07/04 01:01:22;;;;;;;1.30;1.20;;;24.80;99.90;;;;;;5023736;28;20486;-80
2022/07/04 01:03:50;;;;;;;2.80;1.10;;;24.70;99.90;;;;;;5025507;28;21403;-80
2022/07/04 01:06:21;;;;;;;1.00;1.00;;;24.70;99.90;;;;;;5019469;28;20448;-80
2022/07/04 01:08:49;;;;;;;1.00;1.00;;;24.80;99.90;;;;;;5022698;28;20487;-80
2022/07/04 01:11:18;;;;;;;2.00;1.30;;;24.70;99.90;;;;;;5019212;28;21055;-80
2022/07/04 01:13:46;;;;;;;3.37;1.13;;;24.70;99.90;;;;;;5023545;28;20456;-80
2022/07/04 01:16:14;;;;;;;1.30;1.20;;;24.70;99.90;;;;;;5024370;28;20485;-80
2022/07/04 01:18:43;;;;;;;1.00;0.90;;;24.70;99.90;;;;;;5020771;28;21071;-80
2022/07/04 01:21:12;;;;;;;1.30;1.20;;;24.70;99.90;;;;;;5021731;28;20472;-80
2022/07/04 01:23:41;;;;;;;1.13;0.90;;;24.70;99.90;;;;;;5025035;28;21184;-80
2022/07/04 01:26:10;;;;;;;1.27;1.17;;;24.60;99.90;;;;;;5021381;28;20456;-80
2022/07/04 01:28:39;;;;;;;1.00;1.00;;;24.60;99.90;;;;;;5025723;28;20460;-80
2022/07/04 01:31:08;;;;;;;1.53;1.10;;;24.60;99.90;;;;;;5021521;28;20888;-80
2022/07/04 01:33:36;;;;;;;1.23;1.13;;;24.60;99.90;;;;;;5022952;28;20478;-80
2022/07/04 01:36:04;;;;;;;1.20;1.10;;;24.50;99.90;;;;;;5019150;28;20465;-80
2022/07/04 01:38:34;;;;;;;3.00;1.20;;;24.50;99.90;;;;;;5022797;28;20948;-80
2022/07/04 01:41:02;;;;;;;2.30;1.17;;;24.50;99.90;;;;;;5019953;28;20506;-80
2022/07/04 01:43:30;;;;;;;1.93;1.10;;;24.50;99.90;;;;;;5022916;28;20441;-80
2022/07/04 01:45:58;;;;;;;2.30;1.10;;;24.50;99.90;;;;;;5025715;28;20444;-80
2022/07/04 01:48:27;;;;;;;1.97;1.10;;;24.40;99.90;;;;;;5022579;28;20449;-81
2022/07/04 01:50:55;;;;;;;1.10;1.00;;;24.40;99.90;;;;;;5022700;28;20472;-81
2022/07/04 01:53:23;;;;;;;1.10;1.00;;;24.50;99.90;;;;;;5022884;28;20454;-81
2022/07/04 01:55:53;;;;;;;1.20;1.10;;;24.40;99.90;;;;;;5022814;28;20452;-81
2022/07/04 01:58:21;;;;;;;0.97;0.97;;;24.40;99.90;;;;;;5026696;28;20542;-80
2022/07/04 02:03:35;;;;;;;1.33;1.23;;;24.40;99.90;;;;;;5023501;28;20467;-80
2022/07/04 02:06:03;;;;;;;1.20;1.10;;;24.40;99.90;;;;;;5023414;28;22392;-80
2022/07/04 02:11:15;;;;;;;1.27;0.90;;;24.30;99.90;;;;;;5022272;28;20479;-80
2022/07/04 02:13:42;;;;;;;1.27;1.10;;;24.30;99.90;;;;;;5026105;28;20510;-80
2022/07/04 02:16:10;;;;;;;1.33;1.10;;;24.20;99.90;;;;;;5024048;28;20453;-80
2022/07/04 02:18:39;;;;;;;2.23;1.10;;;24.20;99.90;;;;;;5023099;28;20878;-82
2022/07/04 02:21:07;;;;;;;1.30;1.10;;;24.20;99.90;;;;;;5021470;28;20491;-81
2022/07/04 02:23:35;;;;;;;1.70;1.60;;;24.20;99.90;;;;;;5025903;28;20485;-81
2022/07/04 02:26:03;;;;;;;1.10;1.00;;;24.20;99.90;;;;;;5024774;28;20464;-80
2022/07/04 02:28:33;;;;;;;1.30;1.20;;;24.20;99.90;;;;;;5022912;28;20471;-80
2022/07/04 02:31:01;;;;;;;1.10;1.10;;;24.30;99.90;;;;;;5024689;28;20473;-81
2022/07/04 02:33:29;;;;;;;3.37;1.30;;;24.20;99.90;;;;;;5024778;28;20465;-81
2022/07/04 02:35:57;;;;;;;1.20;1.10;;;24.10;99.90;;;;;;5026260;28;21083;-80
2022/07/04 02:38:26;;;;;;;1.07;1.00;;;24.20;99.90;;;;;;5022698;28;20495;-81
2022/07/04 02:40:54;;;;;;;2.20;1.00;;;24.10;99.90;;;;;;5025981;28;20878;-81
2022/07/04 02:43:22;;;;;;;1.90;1.80;;;24.10;99.90;;;;;;5020031;28;20464;-81
2022/07/04 02:45:52;;;;;;;1.03;1.03;;;24.10;99.90;;;;;;5025760;28;20487;-81
2022/07/04 02:48:20;;;;;;;1.90;1.13;;;24.10;99.90;;;;;;5022146;28;20463;-81
2022/07/04 02:50:48;;;;;;;1.63;1.30;;;24.00;99.90;;;;;;5025182;28;20480;-81
2022/07/04 02:53:16;;;;;;;1.97;1.20;;;24.00;99.90;;;;;;5023508;28;20518;-81
2022/07/04 02:55:45;;;;;;;1.33;1.10;;;24.00;99.90;;;;;;5024344;28;20456;-81
2022/07/04 02:58:13;;;;;;;1.30;1.20;;;24.00;99.90;;;;;;5020790;28;20542;-81
2022/07/04 03:00:41;;;;;;;1.00;1.00;;;24.00;99.90;;;;;;5026208;28;21057;-81
2022/07/04 03:03:10;;;;;;;2.03;1.13;;;24.00;99.90;;;;;;5055666;28;20468;-81
2022/07/04 03:05:39;;;;;;;1.50;1.10;;;24.00;99.90;;;;;;5025323;28;20523;-80
2022/07/04 03:08:07;;;;;;;1.30;1.20;;;23.90;99.90;;;;;;5024693;28;20448;-81
2022/07/04 03:10:35;;;;;;;1.63;1.30;;;23.90;99.90;;;;;;5024280;28;20471;-81
2022/07/04 03:13:03;;;;;;;1.20;1.10;;;23.90;99.90;;;;;;5027664;28;20468;-80
2022/07/04 03:15:34;;;;;;;4.07;1.13;;;23.90;99.90;;;;;;5024541;28;20487;-80
2022/07/04 03:18:03;;;;;;;1.07;1.07;;;23.90;99.90;;;;;;5028582;28;20590;-81
2022/07/04 03:20:32;;;;;;;1.30;1.20;;;23.80;99.90;;;;;;5023653;28;20480;-81
2022/07/04 03:23:00;;;;;;;1.10;1.00;;;23.80;99.90;;;;;;5023462;28;20460;-80
2022/07/04 03:25:29;;;;;;;1.90;1.30;;;23.70;99.90;;;;;;5019373;28;20468;-81
2022/07/04 03:27:57;;;;;;;1.77;1.00;;;23.70;99.90;;;;;;5025239;28;20448;-81
2022/07/04 03:30:25;;;;;;;1.43;1.00;;;23.70;99.90;;;;;;5024061;28;21032;-80
2022/07/04 03:32:54;;;;;;;1.20;1.20;;;23.70;99.90;;;;;;5023332;28;21022;-80
2022/07/04 03:35:22;;;;;;;2.00;1.30;;;23.70;99.90;;;;;;5020824;28;20456;-80
2022/07/04 03:37:51;;;;;;;1.10;1.00;;;23.70;99.90;;;;;;5025631;28;20479;-80
2022/07/04 03:40:20;;;;;;;1.40;1.30;;;23.60;99.90;;;;;;5022234;28;20472;-79
2022/07/04 03:42:48;;;;;;;1.77;1.20;;;23.60;99.90;;;;;;5025811;28;20494;-80
2022/07/04 03:45:16;;;;;;;1.80;1.13;;;23.60;99.90;;;;;;5020185;28;20459;-81
2022/07/04 03:47:45;;;;;;;1.30;1.20;;;23.60;99.90;;;;;;5024433;28;20457;-81
2022/07/04 03:50:13;;;;;;;2.90;1.30;;;23.60;99.90;;;;;;5020236;28;20487;-81
2022/07/04 03:52:41;;;;;;;1.47;1.33;;;23.50;99.90;;;;;;5022198;28;20461;-81
2022/07/04 03:55:11;;;;;;;3.07;1.10;;;23.50;99.90;;;;;;5021367;28;20460;-80
2022/07/04 03:57:39;;;;;;;1.50;1.03;;;23.50;99.90;;;;;;5018689;28;20482;-79
2022/07/04 04:00:09;;;;;;;1.43;1.20;;;23.50;99.90;;;;;;5023435;28;20476;-79
2022/07/04 04:02:38;;;;;;;1.73;1.10;;;23.40;99.90;;;;;;5024589;28;20489;-80
2022/07/04 04:05:26;;;;;;;1.30;1.20;;;23.40;99.90;;;;;;5020671;28;20459;-80
2022/07/04 04:07:56;;;;;;;1.17;1.07;;;23.40;99.90;;;;;;5020613;28;20441;-79
2022/07/04 04:10:27;;;;;;;1.30;1.20;;;23.40;99.90;;;;;;5021629;28;20496;-80
2022/07/04 04:12:55;;;;;;;2.80;1.10;;;23.40;99.90;;;;;;5022405;28;20472;-79
2022/07/04 04:15:23;;;;;;;1.87;1.10;;;23.40;99.90;;;;;;5022191;28;20492;-80
2022/07/04 04:17:52;;;;;;;1.40;1.30;;;23.40;99.90;;;;;;5023611;28;20472;-79
2022/07/04 04:20:20;;;;;;;1.80;1.20;;;23.40;99.90;;;;;;5021209;28;20542;-80
2022/07/04 04:22:49;;;;;;;1.80;1.17;;;23.30;99.90;;;;;;5024454;28;20452;-80
2022/07/04 04:25:18;;;;;;;1.30;1.20;;;23.30;99.90;;;;;;5021969;28;21187;-80
2022/07/04 04:27:48;;;;;;;1.27;1.17;;;23.30;99.90;;;;;;5027686;28;20579;-79
2022/07/04 04:30:16;;;;;;;1.20;1.10;;;23.30;99.90;;;;;;5029590;28;21297;-80
2022/07/04 04:32:44;;;;;;;1.37;1.10;;;23.30;99.90;;;;;;5023243;28;20952;-79
2022/07/04 04:35:13;;;;;;;1.77;1.20;;;23.30;99.90;;;;;;5018695;28;20448;-80
2022/07/04 04:37:41;;;;;;;1.17;1.07;;;23.20;99.90;;;;;;5022791;28;20545;-81
2022/07/04 04:40:11;;;;;;;2.40;1.20;;;23.20;99.90;;;;;;5026036;28;20469;-81
2022/07/04 04:42:39;;;;;;;2.03;1.40;;;23.20;99.90;;;;;;5029470;28;20505;-81
2022/07/04 04:45:09;;;;;;;2.63;1.33;;;23.20;99.90;;;;;;5029971;28;20467;-80
2022/07/04 04:47:38;;;;;;;2.30;1.30;;;23.20;99.90;;;;;;5030152;28;21259;-81
2022/07/04 04:50:10;;;;;;;1.30;1.20;;;23.10;99.90;;;;;;5023301;28;20492;-81
2022/07/04 04:52:38;;;;;;;2.47;1.47;;;23.10;99.90;;;;;;5022855;28;20463;-80
2022/07/04 04:55:07;;;;;;;1.40;1.30;;;23.10;99.90;;;;;;5025446;28;20455;-80
2022/07/04 04:57:35;;;;;;;2.07;1.40;;;23.20;99.90;;;;;;5028329;28;20542;-80
2022/07/04 05:00:05;;;;;;;1.07;0.90;;;23.20;99.90;;;;;;5018885;28;20488;-81
2022/07/04 05:02:34;;;;;;;3.03;1.20;;;23.20;99.90;;;;;;5028240;28;20521;-81
2022/07/04 05:05:03;;;;;;;2.57;1.13;;;23.20;99.90;;;;;;5023668;28;20471;-79
2022/07/04 05:07:31;;;;;;;1.63;1.10;;;23.20;99.90;;;;;;5024975;28;20464;-81
2022/07/04 05:09:59;;;;;;;1.83;1.30;;;23.20;99.90;;;;;;5024513;28;20467;-81
2022/07/04 05:12:28;;;;;;;1.73;1.10;;;23.20;99.90;;;;;;5025499;28;20471;-80
2022/07/04 05:14:56;;;;;;;1.00;1.00;;;23.20;99.90;;;;;;5024026;28;20464;-79
2022/07/04 05:17:25;;;;;;;1.20;1.10;;;23.20;99.90;;;;;;5025294;28;20458;-82
2022/07/04 05:19:55;;;;;;;2.77;1.40;;;23.20;99.90;;;;;;5019499;28;20477;-81
2022/07/04 05:22:23;;;;;;;1.30;1.00;;;23.10;99.90;;;;;;5020163;28;20554;-81
2022/07/04 05:24:52;;;;;;;1.63;1.00;;;23.20;99.90;;;;;;5027810;28;20456;-82
2022/07/04 05:27:20;;;;;;;1.00;1.00;;;23.20;99.90;;;;;;5027660;28;20458;-81
2022/07/04 05:29:48;;;;;;;1.20;1.10;;;23.30;99.90;;;;;;5029550;28;20455;-81
2022/07/04 05:32:21;;;;;;;1.00;1.00;;;23.20;99.90;;;;;;5027638;28;20460;-81
2022/07/04 05:34:50;;;;;;;1.60;1.50;;;23.20;99.90;;;;;;5028160;28;20910;-81
2022/07/04 05:37:20;;;;;;;1.40;1.03;;;23.30;99.90;;;;;;5028699;28;20482;-82
2022/07/04 05:39:49;;;;;;;2.93;1.00;;;23.30;99.90;;;;;;5028591;28;20478;-82
2022/07/04 05:42:17;;;;;;;1.20;1.10;;;23.30;99.90;;;;;;5028582;28;20795;-81
2022/07/04 05:44:45;;;;;;;1.33;1.10;;;23.30;99.90;;;;;;5028759;28;20460;-82
2022/07/04 05:47:14;;;;;;;2.13;1.00;;;23.40;99.90;;;;;;5029336;28;20461;-86
2022/07/04 05:49:42;;;;;;;1.43;1.07;;;23.40;99.90;;;;;;5030755;28;20449;-86
2022/07/04 05:52:11;;;;;;;1.27;1.20;;;23.40;99.90;;;;;;5027684;28;20465;-87
2022/07/04 05:54:41;;;;;;;1.23;1.00;;;23.40;99.90;;;;;;5025141;28;20472;-87
2022/07/04 05:57:10;;;;;;;1.37;1.17;;;23.40;99.90;;;;;;5028610;28;20555;-87
2022/07/04 05:59:38;;;;;;;1.80;1.10;;;23.40;99.90;;;;;;5028920;28;20490;-86
2022/07/04 06:02:06;;;;;;;2.07;1.27;;;23.40;99.90;;;;;;5030394;28;20469;-86
2022/07/04 06:04:35;;;;;;;3.13;1.17;;;23.40;99.90;;;;;;5032615;28;20457;-86
2022/07/04 06:07:03;;;;;;;2.30;0.90;;;23.40;99.90;;;;;;5031267;28;20458;-86
2022/07/04 06:09:32;;;;;;;1.00;1.00;;;23.40;99.90;;;;;;5032446;28;20444;-86
2022/07/04 06:12:03;;;;;;;2.17;1.00;;;23.50;99.90;;;;;;5031098;28;20995;-87
2022/07/04 06:14:31;;;;;;;2.57;1.03;;;23.50;99.90;;;;;;5032334;28;20448;-88
2022/07/04 06:16:59;;;;;;;2.03;1.10;;;23.50;99.90;;;;;;5032002;28;20467;-86
2022/07/04 06:19:28;;;;;;;4.57;1.20;;;23.50;99.90;;;;;;5031206;28;21051;-86
2022/07/04 06:21:56;;;;;;;1.00;1.00;;;23.50;99.90;;;;;;5032753;28;20469;-86
2022/07/04 06:24:25;;;;;;;1.13;1.00;;;23.50;99.90;;;;;;5030867;28;20452;-87
2022/07/04 06:26:53;;;;;;;1.37;1.03;;;23.50;99.90;;;;;;5064019;28;20445;-86
2022/07/04 06:29:23;;;;;;;1.67;1.10;;;23.50;99.90;;;;;;5032461;28;20440;-87
2022/07/04 06:31:51;;;;;;;1.10;1.00;;;23.60;99.90;;;;;;5030498;28;20484;-88
2022/07/04 06:37:05;;;;;;;1.37;1.27;;;23.60;99.90;;;;;;5028550;28;20460;-86
2022/07/04 06:39:33;;;;;;;1.67;1.30;;;23.60;99.90;;;;;;5032105;28;20480;-90
2022/07/04 06:42:02;;;;;;;1.07;0.97;;;23.70;99.90;;;;;;5046785;28;20472;-88
2022/07/04 06:44:31;;;;;;;1.40;0.97;;;23.70;99.90;;;;;;5068030;28;20793;-86
2022/07/04 06:47:00;;;;;;;1.87;1.00;;;23.80;99.90;;;;;;5021294;28;20456;-87
2022/07/04 06:49:28;;;;;;;1.20;1.10;;;23.70;99.90;;;;;;5031953;28;20437;-87
2022/07/04 06:51:56;;;;;;;1.20;1.10;;;23.80;99.90;;;;;;5031922;28;20475;-87
2022/07/04 06:54:25;;;;;;;1.70;1.27;;;23.80;99.90;;;;;;5031158;28;20452;-86
2022/07/04 06:56:53;;;;;;;0.90;0.90;;;23.80;99.90;;;;;;5024825;28;20549;-86
2022/07/04 06:59:43;;;;;;;1.20;1.10;;;23.80;99.90;;;;;;5028262;28;20465;-85
2022/07/04 07:02:12;;;;;;;1.30;1.20;;;23.90;99.90;;;;;;5026392;28;20981;-88
2022/07/04 07:04:42;;;;;;;1.47;1.07;;;23.90;99.90;;;;;;5027242;28;20571;-87
2022/07/04 07:07:11;;;;;;;1.67;1.20;;;24.00;99.90;;;;;;5024031;28;20866;-86
2022/07/04 07:09:40;;;;;;;1.30;1.20;;;23.90;99.90;;;;;;5024108;28;20503;-86
2022/07/04 07:12:09;;;;;;;1.83;1.20;;;24.00;99.90;;;;;;5028529;28;20483;-87
2022/07/04 07:14:37;;;;;;;1.20;1.10;;;24.00;99.90;;;;;;5031390;28;20551;-87
2022/07/04 07:17:07;;;;;;;1.77;1.10;;;24.00;99.90;;;;;;5031703;28;20452;-87
2022/07/04 07:19:36;;;;;;;1.20;1.10;;;24.10;99.90;;;;;;5031535;28;20480;-86
2022/07/04 07:22:04;;;;;;;0.90;0.90;;;24.10;99.90;;;;;;5026268;28;20476;-86
2022/07/04 07:24:33;;;;;;;2.17;1.20;;;24.10;99.90;;;;;;5020909;28;20460;-87
2022/07/04 07:27:01;;;;;;;1.63;1.17;;;24.10;99.90;;;;;;5026233;28;20452;-87
2022/07/04 07:29:30;;;;;;;1.20;1.13;;;24.20;99.90;;;;;;5016035;28;20457;-86
2022/07/04 07:31:58;;;;;;;1.47;1.10;;;24.20;99.90;;;;;;5023020;28;20480;-86
2022/07/04 07:34:29;;;;;;;1.50;1.40;;;24.20;99.90;;;;;;5023939;28;20448;-88
2022/07/04 07:36:57;;;;;;;1.40;1.30;;;24.20;99.90;;;;;;5023779;28;20452;-85
2022/07/04 07:39:26;;;;;;;1.13;1.00;;;24.30;99.90;;;;;;5022066;28;20537;-86
2022/07/04 07:41:54;;;;;;;1.40;1.30;;;24.30;99.90;;;;;;5028135;28;20848;-86
2022/07/04 07:44:23;;;;;;;1.17;1.00;;;24.30;99.90;;;;;;5022729;28;20457;-87
2022/07/04 07:46:51;;;;;;;1.37;1.30;;;24.30;99.90;;;;;;5027773;28;20471;-86
2022/07/04 07:49:19;;;;;;;2.87;2.10;;;24.40;99.90;;;;;;5029725;28;20464;-87
2022/07/04 07:51:49;;;;;;;1.23;1.13;;;24.30;99.90;;;;;;5029596;28;20501;-86
2022/07/04 07:54:18;;;;;;;1.43;1.20;;;24.30;99.90;;;;;;5027732;28;20452;-87
2022/07/04 07:57:06;;;;;;;1.30;1.20;;;24.40;99.90;;;;;;5031712;28;20449;-87
2022/07/04 07:59:35;;;;;;;1.70;1.30;;;24.40;99.90;;;;;;5031103;28;20452;-86
2022/07/04 08:02:04;;;;;;;1.33;1.10;;;24.40;99.90;;;;;;5029803;28;20490;-86
2022/07/04 08:04:34;;;;;;;1.10;1.00;;;24.40;99.90;;;;;;5031119;28;20963;-86
2022/07/04 08:07:07;;;;;;;2.30;1.50;;;24.40;99.90;;;;;;5031372;28;20456;-86
2022/07/04 08:09:52;;;;;;;1.60;1.30;;;24.40;99.90;;;;;;5026111;28;20458;-86
2022/07/04 08:12:20;;;;;;;1.90;1.10;;;24.50;99.90;;;;;;5031529;28;20469;-87
2022/07/04 08:14:49;;;;;;;1.23;1.23;;;24.50;99.90;;;;;;5023386;28;20822;-90
2022/07/04 08:17:18;;;;;;;1.33;1.23;;;24.50;99.90;;;;;;5031147;28;20452;-87
2022/07/04 08:19:48;;;;;;;1.00;1.00;;;24.50;99.90;;;;;;5032830;28;20803;-89
2022/07/04 08:22:18;;;;;;;3.70;1.33;;;24.50;99.90;;;;;;5027724;28;20452;-87
2022/07/04 08:24:47;;;;;;;2.37;1.30;;;24.50;99.90;;;;;;5030431;28;20456;-87
2022/07/04 08:27:17;;;;;;;1.23;1.17;;;24.50;99.90;;;;;;5032167;28;20464;-86
2022/07/04 08:29:46;;;;;;;1.10;1.00;;;24.60;99.90;;;;;;5032491;28;20452;-86
2022/07/04 08:32:15;;;;;;;1.20;1.10;;;24.60;99.90;;;;;;5030654;28;21034;-88
2022/07/04 08:34:44;;;;;;;1.97;1.17;;;24.60;99.90;;;;;;5059014;28;20459;-89
2022/07/04 08:37:13;;;;;;;2.80;2.00;;;24.60;99.90;;;;;;5030386;28;20547;-86
2022/07/04 08:39:43;;;;;;;1.57;1.20;;;24.60;99.90;;;;;;5031917;28;20456;-89
2022/07/04 08:42:17;;;;;;;2.60;1.40;;;24.60;99.90;;;;;;5025715;28;20557;-85
2022/07/04 08:44:49;;;;;;;1.43;1.23;;;24.60;99.90;;;;;;5062251;28;20522;-86
2022/07/04 08:47:20;;;;;;;2.13;1.50;;;24.70;99.90;;;;;;5027898;28;20494;-86
2022/07/04 08:49:55;;;;;;;1.37;1.27;;;24.70;99.90;;;;;;5030795;28;20450;-86
2022/07/04 08:52:32;;;;;;;2.00;1.27;;;24.60;99.90;;;;;;5029170;28;20523;-89
2022/07/04 09:00:39;;;;;;;1.60;1.27;;;24.70;99.90;;;;;;5029268;28;20480;-86
2022/07/04 09:03:09;;;;;;;1.30;1.20;;;24.70;99.90;;;;;;5029475;28;20456;-86
2022/07/04 09:05:38;;;;;;;1.57;1.43;;;24.70;99.90;;;;;;5026211;28;20457;-86
2022/07/04 09:08:06;;;;;;;1.40;1.27;;;24.80;99.90;;;;;;5024276;28;20463;-86
2022/07/04 09:10:37;;;;;;;1.20;1.13;;;24.80;99.90;;;;;;5029500;28;20476;-86
2022/07/04 09:13:06;;;;;;;2.23;1.50;;;24.80;99.90;;;;;;5030379;28;20451;-86
2022/07/04 09:15:41;;;;;;;2.50;1.30;;;24.80;99.90;;;;;;5032197;28;20543;-86
2022/07/04 09:18:24;;;;;;;3.43;2.43;;;24.80;99.90;;;;;;5028033;28;20471;-86
2022/07/04 09:20:54;;;;;;;1.93;1.33;;;24.80;99.90;;;;;;5031598;28;20484;-85
2022/07/04 09:23:25;;;;;;;1.57;1.13;;;24.90;99.90;;;;;;5025680;28;21013;-84
2022/07/04 09:26:11;;;;;;;1.30;1.13;;;24.90;99.90;;;;;;5025288;28;20460;-87
2022/07/04 09:28:42;;;;;;;1.57;1.47;;;25.00;99.90;;;;;;5023460;28;20456;-86
2022/07/04 09:31:18;;;;;;;1.23;1.13;;;25.10;99.90;;;;;;5021585;28;20481;-86
2022/07/04 09:33:50;;;;;;;1.70;1.20;;;25.20;99.90;;;;;;5031630;28;20456;-85
2022/07/04 09:36:21;;;;;;;1.60;1.23;;;25.20;99.90;;;;;;5028233;28;20555;-86
2022/07/04 09:39:12;;;;;;;1.77;1.30;;;25.20;99.90;;;;;;5031168;28;20468;-86
2022/07/04 09:41:59;;;;;;;2.73;1.47;;;25.20;99.90;;;;;;5016068;28;20564;-88
2022/07/04 09:44:29;;;;;;;2.63;1.27;;;25.40;99.90;;;;;;5029547;28;20449;-87
2022/07/04 09:46:58;;;;;;;5.60;1.40;;;25.40;99.90;;;;;;5031045;28;20453;-86
2022/07/04 09:49:27;;;;;;;2.10;1.30;;;25.50;99.90;;;;;;5060695;28;20456;-86
2022/07/04 09:51:55;;;;;;;1.33;1.23;;;25.60;99.90;;;;;;5032683;28;20467;-86
2022/07/04 09:54:28;;;;;;;1.57;1.30;;;25.60;99.90;;;;;;5028513;28;20550;-89
2022/07/04 09:56:59;;;;;;;1.00;1.00;;;25.70;99.90;;;;;;5024169;28;20493;-87
2022/07/04 09:59:29;;;;;;;1.23;1.13;;;25.70;99.90;;;;;;5032665;28;20452;-86
2022/07/04 10:02:08;;;;;;;2.53;1.57;;;25.80;99.90;;;;;;5025357;28;20482;-86
2022/07/04 10:04:45;;;;;;;2.17;1.20;;;25.90;99.90;;;;;;5027578;28;20447;-86
2022/07/04 10:07:30;;;;;;;1.17;1.10;;;25.90;99.90;;;;;;5031530;28;20452;-89
2022/07/04 10:09:59;;;;;;;4.77;1.40;;;26.00;99.90;;;;;;5052626;28;20464;-81
2022/07/04 10:12:29;;;;;;;1.70;1.50;;;26.00;99.90;;;;;;5022693;28;20452;-81
2022/07/04 10:14:58;;;;;;;3.10;1.30;;;25.90;99.90;;;;;;5026722;28;20960;-81
2022/07/04 10:17:26;;;;;;;1.20;1.10;;;25.90;99.90;;;;;;5029565;28;20824;-80
2022/07/04 10:19:56;;;;;;;1.23;1.13;;;26.00;99.90;;;;;;5022514;28;20464;-82
2022/07/04 10:22:24;;;;;;;1.60;1.50;;;26.00;99.90;;;;;;5024462;28;20922;-83
2022/07/04 10:24:53;;;;;;;1.57;1.47;;;26.00;99.90;;;;;;5025313;28;21006;-81
2022/07/04 10:27:21;;;;;;;2.50;1.40;;;26.00;99.90;;;;;;5026355;28;20461;-80
2022/07/04 10:29:51;;;;;;;4.73;2.30;;;26.00;99.90;;;;;;5027325;28;20551;-82
2022/07/04 10:32:21;;;;;;;1.73;1.60;;;26.00;99.90;;;;;;5020921;28;20457;-82
2022/07/04 10:34:49;;;;;;;1.83;1.30;;;26.10;99.90;;;;;;5027718;28;20448;-82
2022/07/04 10:37:17;;;;;;;2.50;1.20;;;26.20;99.90;;;;;;5023476;28;20460;-83
2022/07/04 10:39:46;;;;;;;1.40;1.30;;;26.20;99.90;;;;;;5043897;28;20472;-84
2022/07/04 10:42:24;;;;;;;1.47;1.37;;;26.20;99.90;;;;;;5023976;28;20469;-85
2022/07/04 10:44:55;;;;;;;1.60;1.33;;;26.20;99.90;;;;;;5023745;28;20442;-82
2022/07/04 10:47:27;;;;;;;1.40;1.30;;;26.20;99.90;;;;;;5024366;28;20448;-82
2022/07/04 10:49:56;;;;;;;1.60;1.50;;;26.20;99.90;;;;;;5023090;28;20453;-82
2022/07/04 10:52:24;;;;;;;2.30;1.27;;;26.30;99.90;;;;;;5026118;28;20441;-81
2022/07/04 10:54:53;;;;;;;1.67;1.57;;;26.20;99.90;;;;;;5026457;28;20463;-78
2022/07/04 10:57:24;;;;;;;1.50;1.40;;;26.30;99.90;;;;;;5026707;28;20452;-81
2022/07/04 11:00:10;;;;;;;1.50;1.40;;;26.30;99.90;;;;;;5020609;28;20461;-80
2022/07/04 11:02:39;;;;;;;1.40;1.30;;;26.30;99.90;;;;;;5024104;28;20486;-80
2022/07/04 11:05:09;;;;;;;2.80;1.37;;;26.30;99.90;;;;;;5019979;28;20457;-87
2022/07/04 11:07:56;;;;;;;1.77;1.67;;;26.40;99.90;;;;;;5030714;28;20483;-88
2022/07/04 11:10:26;;;;;;;2.03;1.43;;;26.40;99.90;;;;;;5023560;28;20465;-81
2022/07/04 11:13:17;;;;;;;3.50;1.60;;;26.40;99.90;;;;;;5021207;28;20960;-81
2022/07/04 11:16:01;;;;;;;1.97;1.40;;;26.40;99.90;;;;;;5017164;28;20995;-82
2022/07/04 11:18:31;;;;;;;1.37;1.27;;;26.30;99.90;;;;;;5019636;28;20460;-83
2022/07/04 11:20:59;;;;;;;1.63;1.30;;;26.30;99.90;;;;;;5023308;28;20492;-81
2022/07/04 11:23:27;;;;;;;2.13;1.30;;;26.30;99.90;;;;;;5021612;28;20483;-82
2022/07/04 11:25:57;;;;;;;1.30;1.20;;;26.40;99.90;;;;;;5027299;28;20464;-81
2022/07/04 11:28:28;;;;;;;1.13;1.03;;;26.40;99.90;;;;;;5027042;28;20463;-82
2022/07/04 11:31:15;;;;;;;2.87;1.40;;;26.40;99.90;;;;;;5026395;28;21093;-82
2022/07/04 11:33:47;;;;;;;1.53;1.43;;;26.40;99.90;;;;;;5027018;28;20452;-82
2022/07/04 11:36:18;;;;;;;2.33;1.50;;;26.40;99.90;;;;;;5025317;28;20464;-82
2022/07/04 11:38:53;;;;;;;1.90;1.40;;;26.50;99.90;;;;;;5019194;28;21063;-82
2022/07/04 11:47:20;;;;;;;1.33;1.23;;;26.50;99.90;;;;;;5024182;28;21003;-81
2022/07/04 11:49:52;;;;;;;1.40;1.27;;;26.60;99.90;;;;;;5024142;28;20456;-81
2022/07/04 11:52:22;;;;;;;1.53;1.43;;;26.60;99.90;;;;;;5031255;28;20448;-82
2022/07/04 11:55:11;;;;;;;1.40;1.30;;;26.60;99.90;;;;;;5030031;28;20442;-82
2022/07/04 11:57:41;;;;;;;1.20;1.20;;;26.60;99.90;;;;;;5032212;28;20466;-82
2022/07/04 12:00:11;;;;;;;1.30;1.20;;;26.70;99.90;;;;;;5025817;28;20483;-82
2022/07/04 12:02:47;;;;;;;1.30;1.20;;;26.70;99.90;;;;;;5026795;28;20565;-82
2022/07/04 12:05:17;;;;;;;2.90;1.60;;;26.70;99.90;;;;;;5032482;28;20543;-82
2022/07/04 12:07:47;;;;;;;1.43;1.33;;;26.80;99.90;;;;;;5025282;28;20480;-82
2022/07/04 12:10:36;;;;;;;1.30;1.20;;;26.80;99.90;;;;;;5031303;28;20570;-81
2022/07/04 12:13:09;;;;;;;1.93;1.80;;;26.80;99.90;;;;;;5032474;28;20452;-82
2022/07/04 12:15:39;;;;;;;4.80;1.40;;;26.80;99.90;;;;;;5023682;28;20453;-82
2022/07/04 12:18:18;;;;;;;1.73;1.50;;;26.80;99.90;;;;;;5030338;28;20457;-82
2022/07/04 12:20:49;;;;;;;2.17;1.60;;;26.90;99.90;;;;;;5031284;28;20479;-81
2022/07/04 12:23:20;;;;;;;1.40;1.30;;;26.90;99.90;;;;;;5027139;28;20484;-82
2022/07/04 12:25:50;;;;;;;1.50;1.30;;;26.90;99.90;;;;;;5024375;28;21035;-82
2022/07/04 12:28:19;;;;;;;1.90;1.63;;;26.90;99.90;;;;;;5033701;28;21051;-82
2022/07/04 12:30:52;;;;;;;1.40;1.30;;;26.90;99.90;;;;;;5028039;28;20822;-81
2022/07/04 12:33:23;;;;;;;1.30;1.20;;;26.90;99.90;;;;;;5025508;28;20532;-82
2022/07/04 12:35:53;;;;;;;1.70;1.30;;;26.90;99.90;;;;;;5022206;28;20526;-82
2022/07/04 12:38:30;;;;;;;1.50;1.40;;;26.90;99.90;;;;;;5017646;28;20489;-81
2022/07/04 12:41:00;;;;;;;1.10;1.10;;;26.90;99.90;;;;;;5020266;28;20483;-81
2022/07/04 12:43:45;;;;;;;1.40;1.20;;;26.90;99.90;;;;;;5020464;28;20539;-81
2022/07/04 12:46:16;;;;;;;2.23;1.50;;;26.90;99.90;;;;;;5018886;28;20457;-82
2022/07/04 12:48:50;;;;;;;1.53;1.43;;;26.90;99.90;;;;;;5017086;28;20465;-82
2022/07/04 12:51:21;;;;;;;2.03;1.80;;;26.90;99.90;;;;;;5015692;28;20477;-81
2022/07/04 12:53:52;;;;;;;1.73;1.20;;;26.90;99.90;;;;;;5019775;28;20452;-82
2022/07/04 12:56:31;;;;;;;1.40;1.20;;;26.90;99.90;;;;;;5020087;28;20452;-82
2022/07/04 12:59:01;;;;;;;1.27;1.17;;;26.90;99.90;;;;;;5021173;28;20460;-82
2022/07/04 13:01:29;;;;;;;3.43;1.30;;;27.00;99.90;;;;;;5018685;28;20473;-82
2022/07/04 13:04:00;;;;;;;1.50;1.40;;;27.00;99.90;;;;;;5025901;28;20485;-82
2022/07/04 13:06:28;;;;;;;1.33;1.10;;;27.00;99.90;;;;;;5024193;28;20448;-81
2022/07/04 13:08:58;;;;;;;1.67;1.10;;;27.00;99.90;;;;;;5019619;28;20452;-81
2022/07/04 13:14:11;;;;;;;1.20;1.10;;;27.00;99.90;;;;;;5001060;28;21022;-82
2022/07/04 13:16:39;;;;;;;2.20;1.30;;;27.00;99.90;;;;;;5020741;28;20449;-81
2022/07/04 13:19:10;;;;;;;1.20;1.10;;;27.10;99.90;;;;;;5023972;28;20532;-82
2022/07/04 13:21:38;;;;;;;1.30;1.20;;;27.10;99.90;;;;;;5019643;28;20488;-82
2022/07/04 13:24:08;;;;;;;1.83;1.30;;;27.10;99.90;;;;;;5022701;28;20484;-81
2022/07/04 13:26:37;;;;;;;1.40;1.30;;;27.10;99.90;;;;;;5021295;28;20541;-82